createdAt,value
2023-12-21T00:02:05.186Z,20.37
2023-12-21T00:04:33.958Z,19.67
2023-12-21T00:07:02.553Z,19.40
2023-12-21T00:09:30.717Z,20.83
2023-12-21T00:11:59.144Z,22.53
2023-12-21T00:14:28.646Z,23.63
2023-12-21T00:16:56.775Z,21.93
2023-12-21T00:19:25.309Z,19.23
2023-12-21T00:21:53.661Z,20.13
2023-12-21T00:24:21.842Z,18.50
2023-12-21T00:26:50.262Z,21.43
2023-12-21T00:29:18.136Z,19.60
2023-12-21T00:31:46.657Z,25.67
2023-12-21T00:34:18.039Z,21.77
2023-12-21T00:36:48.724Z,17.67
2023-12-21T00:39:17.025Z,17.50
2023-12-21T00:41:45.291Z,17.83
2023-12-21T00:44:13.334Z,20.37
2023-12-21T00:46:41.836Z,20.00
2023-12-21T00:49:10.431Z,20.37
2023-12-21T00:51:38.849Z,21.43
2023-12-21T00:54:06.982Z,23.90
2023-12-21T00:56:35.221Z,24.93
2023-12-21T00:59:05.775Z,22.57
2023-12-21T01:01:34.439Z,23.37
2023-12-21T01:04:03.004Z,26.03
2023-12-21T01:06:32.081Z,25.40
2023-12-21T01:09:00.894Z,27.67
2023-12-21T01:11:29.834Z,23.17
2023-12-21T01:13:58.239Z,19.23
2023-12-21T01:16:26.680Z,20.17
2023-12-21T01:19:00.776Z,20.67
2023-12-21T01:21:29.139Z,25.37
2023-12-21T01:23:57.513Z,24.23
2023-12-21T01:26:27.944Z,22.70
2023-12-21T01:28:56.068Z,28.60
2023-12-21T01:31:26.808Z,31.57
2023-12-21T01:33:55.043Z,31.93
2023-12-21T01:36:23.573Z,37.10
2023-12-21T01:38:51.563Z,39.00
2023-12-21T01:41:19.316Z,38.80
2023-12-21T01:43:47.755Z,37.40
2023-12-21T01:46:15.775Z,39.93
2023-12-21T01:48:44.592Z,40.10
2023-12-21T01:51:13.270Z,46.80
2023-12-21T01:53:42.009Z,47.50
2023-12-21T01:56:10.658Z,50.20
2023-12-21T01:58:40.089Z,57.23
2023-12-21T02:01:08.969Z,64.60
2023-12-21T02:03:37.361Z,60.93
2023-12-21T02:06:05.923Z,61.53
2023-12-21T02:08:34.140Z,63.27
2023-12-21T02:11:08.010Z,63.77
2023-12-21T02:13:36.078Z,73.63
2023-12-21T02:16:13.105Z,62.27
2023-12-21T02:18:41.907Z,63.10
2023-12-21T02:21:11.809Z,71.60
2023-12-21T02:23:41.921Z,62.40
2023-12-21T02:26:10.860Z,57.77
2023-12-21T02:28:41.258Z,67.90
2023-12-21T02:31:09.713Z,58.63
2023-12-21T02:33:39.662Z,58.47
2023-12-21T02:36:10.967Z,54.90
2023-12-21T02:38:41.360Z,54.17
2023-12-21T02:41:09.309Z,52.17
2023-12-21T02:43:37.683Z,54.53
2023-12-21T02:46:05.783Z,52.57
2023-12-21T02:48:34.134Z,51.03
2023-12-21T02:51:02.286Z,47.83
2023-12-21T02:53:30.089Z,50.57
2023-12-21T02:55:58.621Z,48.87
2023-12-21T02:58:26.970Z,48.30
2023-12-21T03:00:55.092Z,51.07
2023-12-21T03:03:23.283Z,48.57
2023-12-21T03:05:51.474Z,49.87
2023-12-21T03:08:19.891Z,49.00
2023-12-21T03:10:47.831Z,58.10
2023-12-21T03:13:15.752Z,50.77
2023-12-21T03:15:43.907Z,54.67
2023-12-21T03:18:12.815Z,74.17
2023-12-21T03:20:41.319Z,51.67
2023-12-21T03:23:09.922Z,46.57
2023-12-21T03:25:38.355Z,52.00
2023-12-21T03:28:07.963Z,50.10
2023-12-21T03:30:36.427Z,51.27
2023-12-21T03:33:04.361Z,46.57
2023-12-21T03:35:33.132Z,44.97
2023-12-21T03:38:01.436Z,43.60
2023-12-21T03:40:30.295Z,35.60
2023-12-21T03:42:58.914Z,34.90
2023-12-21T03:45:27.095Z,32.47
2023-12-21T03:47:55.160Z,30.57
2023-12-21T03:50:23.088Z,29.27
2023-12-21T03:52:51.672Z,28.17
2023-12-21T03:55:19.825Z,25.47
2023-12-21T03:57:47.989Z,24.63
2023-12-21T04:00:21.018Z,25.50
2023-12-21T04:02:49.230Z,23.77
2023-12-21T04:05:17.382Z,27.27
2023-12-21T04:07:45.880Z,23.93
2023-12-21T04:10:14.374Z,22.73
2023-12-21T04:12:42.504Z,23.30
2023-12-21T04:15:13.026Z,22.30
2023-12-21T04:17:41.386Z,22.70
2023-12-21T04:20:11.814Z,21.60
2023-12-21T04:22:40.126Z,22.40
2023-12-21T04:25:08.703Z,23.77
2023-12-21T04:27:36.731Z,20.20
2023-12-21T04:30:05.161Z,20.70
2023-12-21T04:32:33.406Z,24.07
2023-12-21T04:35:01.722Z,28.07
2023-12-21T04:37:30.127Z,25.03
2023-12-21T04:39:58.330Z,21.53
2023-12-21T04:42:25.871Z,22.20
2023-12-21T04:44:54.002Z,20.27
2023-12-21T04:47:24.112Z,19.20
2023-12-21T04:49:53.253Z,21.70
2023-12-21T04:52:21.354Z,23.60
2023-12-21T04:54:49.751Z,18.43
2023-12-21T04:57:20.377Z,23.37
2023-12-21T04:59:50.281Z,32.27
2023-12-21T05:02:19.009Z,19.90
2023-12-21T05:04:47.376Z,17.50
2023-12-21T05:07:15.772Z,18.83
2023-12-21T05:09:44.142Z,18.53
2023-12-21T05:12:12.358Z,18.63
2023-12-21T05:14:40.444Z,17.70
2023-12-21T05:17:09.711Z,21.07
2023-12-21T05:19:39.408Z,18.30
2023-12-21T05:22:07.562Z,17.80
2023-12-21T05:24:41.600Z,19.10
2023-12-21T05:27:09.845Z,21.50
2023-12-21T05:29:37.892Z,19.17
2023-12-21T05:32:06.337Z,39.63
2023-12-21T05:34:34.955Z,61.23
2023-12-21T05:37:03.203Z,80.80
2023-12-21T05:39:37.049Z,24.07
2023-12-21T05:42:05.543Z,23.33
2023-12-21T05:44:33.138Z,19.90
2023-12-21T05:47:01.150Z,20.80
2023-12-21T05:49:29.368Z,17.27
2023-12-21T05:52:01.130Z,21.10
2023-12-21T05:54:31.884Z,18.87
2023-12-21T05:57:00.795Z,21.67
2023-12-21T05:59:29.094Z,19.80
2023-12-21T06:01:57.514Z,19.03
2023-12-21T06:04:26.070Z,24.50
2023-12-21T06:06:54.706Z,20.93
2023-12-21T06:09:23.313Z,19.70
2023-12-21T06:11:51.531Z,20.23
2023-12-21T06:14:19.523Z,24.87
2023-12-21T06:16:47.914Z,24.70
2023-12-21T06:19:17.370Z,22.77
2023-12-21T06:21:45.363Z,21.87
2023-12-21T06:24:16.478Z,18.57
2023-12-21T06:26:45.081Z,21.77
2023-12-21T06:29:13.408Z,21.77
2023-12-21T06:31:41.516Z,17.60
2023-12-21T06:34:09.247Z,19.17
2023-12-21T06:36:37.367Z,18.87
2023-12-21T06:39:05.332Z,18.60
2023-12-21T06:41:33.580Z,17.97
2023-12-21T06:44:01.827Z,16.83
2023-12-21T06:46:30.231Z,17.00
2023-12-21T06:48:58.562Z,16.23
2023-12-21T06:51:26.608Z,17.43
2023-12-21T06:53:55.473Z,17.27
2023-12-21T06:56:32.840Z,16.67
2023-12-21T06:59:03.786Z,13.83
2023-12-21T07:01:34.351Z,16.73
2023-12-21T07:04:03.848Z,20.73
2023-12-21T07:06:31.941Z,23.17
2023-12-21T07:09:00.485Z,15.07
2023-12-21T07:11:28.485Z,14.13
2023-12-21T07:14:02.327Z,17.27
2023-12-21T07:16:30.218Z,15.93
2023-12-21T07:18:59.530Z,15.13
2023-12-21T07:21:27.505Z,15.80
2023-12-21T07:23:55.683Z,15.33
2023-12-21T07:26:23.635Z,17.97
2023-12-21T07:28:52.393Z,18.33
2023-12-21T07:31:20.212Z,19.30
2023-12-21T07:33:48.567Z,20.60
2023-12-21T07:36:16.669Z,22.57
2023-12-21T07:38:45.029Z,27.80
2023-12-21T07:41:14.008Z,28.53
2023-12-21T07:43:43.097Z,25.87
2023-12-21T07:46:11.232Z,26.23
2023-12-21T07:48:39.451Z,20.90
2023-12-21T07:51:10.326Z,21.57
2023-12-21T07:53:38.596Z,24.07
2023-12-21T07:56:07.283Z,18.13
2023-12-21T07:58:37.473Z,26.67
2023-12-21T08:01:05.325Z,20.87
2023-12-21T08:03:33.326Z,19.77
2023-12-21T08:06:02.089Z,24.23
2023-12-21T08:08:31.340Z,22.63
2023-12-21T08:10:59.736Z,24.27
2023-12-21T08:13:28.039Z,21.23
2023-12-21T08:15:56.081Z,22.67
2023-12-21T08:18:24.044Z,20.50
2023-12-21T08:20:52.619Z,30.37
2023-12-21T08:23:20.422Z,24.13
2023-12-21T08:25:49.415Z,32.97
2023-12-21T08:28:17.738Z,22.33
2023-12-21T08:30:45.885Z,20.93
2023-12-21T08:33:14.362Z,21.73
2023-12-21T08:35:42.326Z,25.63
2023-12-21T08:38:10.368Z,24.97
2023-12-21T08:40:38.390Z,26.30
2023-12-21T08:43:06.490Z,23.13
2023-12-21T08:45:34.487Z,26.77
2023-12-21T08:48:02.494Z,24.50
2023-12-21T08:50:35.991Z,22.07
2023-12-21T08:53:07.222Z,26.03
2023-12-21T08:55:35.333Z,22.93
2023-12-21T08:58:05.751Z,20.57
2023-12-21T09:00:34.019Z,29.00
2023-12-21T09:03:04.905Z,20.50
2023-12-21T09:05:33.246Z,25.27
2023-12-21T09:08:04.609Z,26.07
2023-12-21T09:10:35.048Z,29.07
2023-12-21T09:13:15.512Z,28.53
2023-12-21T09:15:50.159Z,25.73
2023-12-21T09:18:22.900Z,21.87
2023-12-21T09:20:52.851Z,25.17
2023-12-21T09:23:26.439Z,30.47
2023-12-21T09:25:55.834Z,24.03
2023-12-21T09:28:24.040Z,26.97
2023-12-21T09:30:52.143Z,26.40
2023-12-21T09:33:20.402Z,34.13
2023-12-21T09:35:55.687Z,27.70
2023-12-21T09:38:26.261Z,31.13
2023-12-21T09:40:55.483Z,34.40
2023-12-21T09:43:25.532Z,30.80
2023-12-21T09:45:55.915Z,31.17
2023-12-21T09:48:44.505Z,36.13
2023-12-21T09:51:15.701Z,32.60
2023-12-21T09:53:45.505Z,33.63
2023-12-21T09:56:17.857Z,29.43
2023-12-21T09:58:47.042Z,30.77
2023-12-21T10:01:15.262Z,27.13
2023-12-21T10:03:46.391Z,27.83
2023-12-21T10:06:15.003Z,28.83
2023-12-21T10:08:45.778Z,33.10
2023-12-21T10:11:14.828Z,31.27
2023-12-21T10:13:49.000Z,31.80
2023-12-21T10:16:18.281Z,30.63
2023-12-21T10:18:46.926Z,32.40
2023-12-21T10:21:15.208Z,39.17
2023-12-21T10:23:44.657Z,34.60
2023-12-21T10:26:12.593Z,32.87
2023-12-21T10:28:41.202Z,38.93
2023-12-21T10:31:10.932Z,43.67
2023-12-21T10:33:39.104Z,37.87
2023-12-21T10:36:08.113Z,48.00
2023-12-21T10:38:36.660Z,43.63
2023-12-21T10:41:07.309Z,37.43
2023-12-21T10:43:36.703Z,39.30
2023-12-21T10:46:04.983Z,40.67
2023-12-21T10:48:39.743Z,35.87
2023-12-21T10:51:08.087Z,30.27
2023-12-21T10:53:38.230Z,33.60
2023-12-21T10:56:07.727Z,33.80
2023-12-21T10:58:37.563Z,32.07
2023-12-21T11:01:07.884Z,38.87
2023-12-21T11:03:38.823Z,38.20
2023-12-21T11:06:06.978Z,35.57
2023-12-21T11:08:37.872Z,35.37
2023-12-21T11:11:06.799Z,35.13
2023-12-21T11:13:36.064Z,34.00
2023-12-21T11:16:04.394Z,39.20
2023-12-21T11:18:33.260Z,34.93
2023-12-21T11:21:02.412Z,45.77
2023-12-21T11:23:31.207Z,30.07
2023-12-21T11:26:00.442Z,36.20
2023-12-21T11:28:34.469Z,44.43
2023-12-21T11:31:20.167Z,39.53
2023-12-21T11:33:48.387Z,41.10
2023-12-21T11:36:27.947Z,37.93
2023-12-21T11:38:58.219Z,32.33
2023-12-21T11:41:26.495Z,33.70
2023-12-21T11:44:02.281Z,44.53
2023-12-21T11:46:34.257Z,43.93
2023-12-21T11:49:06.152Z,40.50
2023-12-21T11:51:38.608Z,40.10
2023-12-21T11:54:07.243Z,45.87
2023-12-21T11:56:38.058Z,58.23
2023-12-21T11:59:08.199Z,45.77
2023-12-21T12:01:36.413Z,48.87
2023-12-21T12:04:07.076Z,41.70
2023-12-21T12:06:35.973Z,43.83
2023-12-21T12:09:04.314Z,42.57
2023-12-21T12:11:32.941Z,46.40
2023-12-21T12:14:00.941Z,46.63
2023-12-21T12:16:33.816Z,46.87
2023-12-21T12:19:01.967Z,49.03
2023-12-21T12:21:31.688Z,50.73
2023-12-21T12:24:00.172Z,52.60
2023-12-21T12:26:30.701Z,57.17
2023-12-21T12:28:58.903Z,54.37
2023-12-21T12:31:27.194Z,65.20
2023-12-21T12:33:55.527Z,55.80
2023-12-21T12:36:23.432Z,56.17
2023-12-21T12:38:52.247Z,54.27
2023-12-21T12:41:26.188Z,58.17
2023-12-21T12:43:54.704Z,55.60
2023-12-21T12:46:26.380Z,59.93
2023-12-21T12:48:54.566Z,58.13
2023-12-21T12:51:24.080Z,61.90
2023-12-21T12:53:53.438Z,142.97
2023-12-21T12:56:21.411Z,76.67
2023-12-21T12:58:58.132Z,83.50
2023-12-21T13:01:29.180Z,81.03
2023-12-21T13:04:00.488Z,70.33
2023-12-21T13:06:30.416Z,75.97
2023-12-21T13:08:59.732Z,67.40
2023-12-21T13:11:28.612Z,76.33
2023-12-21T13:13:57.898Z,66.43
2023-12-21T13:16:26.089Z,60.10
2023-12-21T13:18:54.611Z,58.03
2023-12-21T13:21:23.129Z,61.00
2023-12-21T13:23:51.703Z,60.43
2023-12-21T13:26:20.244Z,57.80
2023-12-21T13:28:48.450Z,59.80
2023-12-21T13:31:17.841Z,77.47
2023-12-21T13:33:46.153Z,62.60
2023-12-21T13:36:14.610Z,64.00
2023-12-21T13:38:43.054Z,64.33
2023-12-21T13:41:11.269Z,69.93
2023-12-21T13:43:43.903Z,66.17
2023-12-21T13:46:15.032Z,69.13
2023-12-21T13:48:43.222Z,68.43
2023-12-21T13:51:10.849Z,76.70
2023-12-21T13:53:38.879Z,79.57
2023-12-21T13:56:07.557Z,71.97
2023-12-21T13:58:38.667Z,74.27
2023-12-21T14:01:07.958Z,72.57
2023-12-21T14:03:36.210Z,65.20
2023-12-21T14:06:05.604Z,66.77
2023-12-21T14:08:33.628Z,77.67
2023-12-21T14:11:01.648Z,72.17
2023-12-21T14:13:29.964Z,74.60
2023-12-21T14:15:59.676Z,75.60
2023-12-21T14:18:27.971Z,86.50
2023-12-21T14:20:56.100Z,80.50
2023-12-21T14:23:24.341Z,95.80
2023-12-21T14:25:52.703Z,100.80
2023-12-21T14:28:21.205Z,116.67
2023-12-21T14:30:52.181Z,113.83
2023-12-21T14:33:20.155Z,110.93
2023-12-21T14:35:49.710Z,113.10
2023-12-21T14:38:18.313Z,93.47
2023-12-21T14:40:46.844Z,125.07
2023-12-21T14:43:15.089Z,143.10
2023-12-21T14:45:43.140Z,184.60
2023-12-21T14:48:11.526Z,168.80
2023-12-21T14:50:43.993Z,151.13
2023-12-21T14:53:12.225Z,135.83
2023-12-21T14:55:42.540Z,132.73
2023-12-21T14:58:11.017Z,139.77
2023-12-21T15:00:49.293Z,160.90
2023-12-21T15:03:17.650Z,145.23
2023-12-21T15:05:46.262Z,157.83
2023-12-21T15:08:16.441Z,146.27
2023-12-21T15:10:44.503Z,140.33
2023-12-21T15:13:14.194Z,137.27
2023-12-21T15:15:44.359Z,158.30
2023-12-21T15:18:12.865Z,150.87
2023-12-21T15:20:42.304Z,154.13
2023-12-21T15:23:10.385Z,147.70
2023-12-21T15:25:38.126Z,147.63
2023-12-21T15:28:06.467Z,130.47
2023-12-21T15:30:37.598Z,122.63
2023-12-21T15:33:05.475Z,127.00
2023-12-21T15:35:33.829Z,116.67
2023-12-21T15:38:04.629Z,104.30
2023-12-21T15:40:32.648Z,104.80
2023-12-21T15:43:00.151Z,105.13
2023-12-21T15:45:28.714Z,98.57
2023-12-21T15:47:56.912Z,85.70
2023-12-21T15:50:25.561Z,84.77
2023-12-21T15:52:54.546Z,97.87
2023-12-21T15:55:23.609Z,100.57
2023-12-21T15:57:51.765Z,104.30
2023-12-21T16:00:20.356Z,108.73
2023-12-21T16:02:50.849Z,102.30
2023-12-21T16:05:19.618Z,93.37
2023-12-21T16:07:48.061Z,100.17
2023-12-21T16:10:16.503Z,95.40
2023-12-21T16:12:46.588Z,135.77
2023-12-21T16:15:14.795Z,133.77
2023-12-21T16:17:42.577Z,142.17
2023-12-21T16:20:11.203Z,113.63
2023-12-21T16:22:39.574Z,102.13
2023-12-21T16:25:07.812Z,110.70
2023-12-21T16:27:39.904Z,110.17
2023-12-21T16:30:08.947Z,110.93
2023-12-21T16:32:38.241Z,124.00
2023-12-21T16:35:06.602Z,122.53
2023-12-21T16:37:34.987Z,126.80
2023-12-21T16:40:05.805Z,148.43
2023-12-21T16:42:37.579Z,156.53
2023-12-21T16:45:07.734Z,141.60
2023-12-21T16:47:35.917Z,137.07
2023-12-21T16:50:04.299Z,142.40
2023-12-21T16:52:33.054Z,145.57
2023-12-21T16:55:02.629Z,143.37
2023-12-21T16:57:30.904Z,155.87
2023-12-21T17:00:00.468Z,140.43
2023-12-21T17:02:28.865Z,148.97
2023-12-21T17:04:59.015Z,150.97
2023-12-21T17:07:27.633Z,156.53
2023-12-21T17:09:58.514Z,153.27
2023-12-21T17:12:26.536Z,156.43
2023-12-21T17:14:54.893Z,148.90
2023-12-21T17:17:26.911Z,148.20
2023-12-21T17:19:54.701Z,151.57
2023-12-21T17:22:22.879Z,157.33
2023-12-21T17:24:50.759Z,142.50
2023-12-21T17:27:19.125Z,136.50
2023-12-21T17:29:47.586Z,127.47
2023-12-21T17:32:15.934Z,128.67
2023-12-21T17:34:45.360Z,135.00
2023-12-21T17:37:13.808Z,117.60
2023-12-21T17:39:44.990Z,118.07
2023-12-21T17:42:12.998Z,129.07
2023-12-21T17:44:41.872Z,112.43
2023-12-21T17:47:10.042Z,104.90
2023-12-21T17:49:38.184Z,99.10
2023-12-21T17:52:06.194Z,104.10
2023-12-21T17:54:38.833Z,109.33
2023-12-21T17:57:06.625Z,104.87
2023-12-21T17:59:34.877Z,102.33
2023-12-21T18:02:07.451Z,93.33
2023-12-21T18:04:35.783Z,91.93
2023-12-21T18:07:03.807Z,85.23
2023-12-21T18:09:32.015Z,87.17
2023-12-21T18:12:00.448Z,78.13
2023-12-21T18:14:28.544Z,54.17
2023-12-21T18:16:56.635Z,66.90
2023-12-21T18:19:24.862Z,60.70
2023-12-21T18:21:53.162Z,63.27
2023-12-21T18:24:22.836Z,71.60
2023-12-21T18:29:37.780Z,78.03
2023-12-21T18:32:06.715Z,139.07
2023-12-21T18:34:34.597Z,86.57
2023-12-21T18:37:05.782Z,85.03
2023-12-21T18:39:34.066Z,59.10
2023-12-21T18:42:02.631Z,106.10
2023-12-21T18:44:31.449Z,112.77
2023-12-21T18:46:59.708Z,98.73
2023-12-21T18:49:28.100Z,50.90
2023-12-21T18:51:56.816Z,63.57
2023-12-21T18:54:25.384Z,79.10
2023-12-21T18:56:53.651Z,81.20
2023-12-21T18:59:21.893Z,66.60
2023-12-21T19:01:49.953Z,69.90
2023-12-21T19:04:18.536Z,98.97
2023-12-21T19:06:46.950Z,95.13
2023-12-21T19:09:14.834Z,91.73
2023-12-21T19:11:43.096Z,107.30
2023-12-21T19:14:11.234Z,108.83
2023-12-21T19:16:45.939Z,96.73
2023-12-21T19:19:14.473Z,104.17
2023-12-21T19:21:47.217Z,77.93
2023-12-21T19:24:15.390Z,72.37
2023-12-21T19:26:43.066Z,82.70
2023-12-21T19:29:11.427Z,80.07
2023-12-21T19:31:39.880Z,82.40
2023-12-21T19:34:08.122Z,82.17
2023-12-21T19:36:36.365Z,82.80
2023-12-21T19:39:06.318Z,64.40
2023-12-21T19:41:34.543Z,66.27
2023-12-21T19:44:05.345Z,67.73
2023-12-21T19:46:34.017Z,53.93
2023-12-21T19:49:04.685Z,66.23
2023-12-21T19:51:34.670Z,59.53
2023-12-21T19:54:06.422Z,60.03
2023-12-21T19:56:36.008Z,69.33
2023-12-21T19:59:05.175Z,64.77
2023-12-21T20:01:35.732Z,55.43
2023-12-21T20:04:03.599Z,68.77
2023-12-21T20:06:31.992Z,71.07
2023-12-21T20:09:00.714Z,55.07
2023-12-21T20:11:30.037Z,59.13
2023-12-21T20:13:59.990Z,60.07
2023-12-21T20:16:28.495Z,50.73
2023-12-21T20:18:56.897Z,61.30
2023-12-21T20:21:28.740Z,50.03
2023-12-21T20:23:56.909Z,44.47
2023-12-21T20:26:25.423Z,44.57
2023-12-21T20:28:53.549Z,60.03
2023-12-21T20:31:21.660Z,51.53
2023-12-21T20:33:52.604Z,55.57
2023-12-21T20:36:20.835Z,53.27
2023-12-21T20:38:48.961Z,55.40
2023-12-21T20:41:17.612Z,48.87
2023-12-21T20:43:48.599Z,54.67
2023-12-21T20:46:17.008Z,61.20
2023-12-21T20:48:44.740Z,49.50
2023-12-21T20:51:13.138Z,45.83
2023-12-21T20:53:42.019Z,53.60
2023-12-21T20:56:10.574Z,54.50
2023-12-21T20:58:39.048Z,63.00
2023-12-21T21:01:07.202Z,53.67
2023-12-21T21:03:38.871Z,52.57
2023-12-21T21:06:07.568Z,72.53
2023-12-21T21:08:36.098Z,52.60
2023-12-21T21:11:05.148Z,57.77
2023-12-21T21:13:33.467Z,52.40
2023-12-21T21:16:01.770Z,50.10
2023-12-21T21:18:30.358Z,52.73
2023-12-21T21:20:59.374Z,52.63
2023-12-21T21:23:30.110Z,53.53
2023-12-21T21:25:59.184Z,53.07
2023-12-21T21:28:30.433Z,53.20
2023-12-21T21:31:01.448Z,48.73
2023-12-21T21:33:30.322Z,51.60
2023-12-21T21:36:00.492Z,57.37
2023-12-21T21:38:28.877Z,51.47
2023-12-21T21:41:01.117Z,53.30
2023-12-21T21:43:33.051Z,55.97
2023-12-21T21:46:07.604Z,48.20
2023-12-21T21:48:38.844Z,49.83
2023-12-21T21:51:17.368Z,57.87
2023-12-21T21:53:46.461Z,49.83
2023-12-21T21:56:14.772Z,52.77
2023-12-21T21:58:43.060Z,51.73
2023-12-21T22:01:11.307Z,49.97
2023-12-21T22:03:39.586Z,45.63
2023-12-21T22:06:08.208Z,49.10
2023-12-21T22:08:39.377Z,51.90
2023-12-21T22:11:08.596Z,49.80
2023-12-21T22:13:39.690Z,46.17
2023-12-21T22:16:08.133Z,51.63
2023-12-21T22:18:36.984Z,46.17
2023-12-21T22:21:05.487Z,46.37
2023-12-21T22:23:33.407Z,46.70
2023-12-21T22:26:03.525Z,49.63
2023-12-21T22:28:32.196Z,54.97
2023-12-21T22:31:00.667Z,50.50
2023-12-21T22:33:29.107Z,49.70
2023-12-21T22:36:00.380Z,48.60
2023-12-21T22:38:31.590Z,64.27
2023-12-21T22:40:59.650Z,68.33
2023-12-21T22:43:35.088Z,70.37
2023-12-21T22:46:10.745Z,71.27
2023-12-21T22:48:39.271Z,73.90
2023-12-21T22:51:08.104Z,78.63
2023-12-21T22:53:36.047Z,78.27
2023-12-21T22:56:04.048Z,79.53
2023-12-21T22:58:32.604Z,77.77
2023-12-21T23:01:01.090Z,81.57
2023-12-21T23:03:29.285Z,75.53
2023-12-21T23:05:57.649Z,106.27
2023-12-21T23:08:26.001Z,76.17
2023-12-21T23:10:54.701Z,76.43
2023-12-21T23:13:23.393Z,76.30
2023-12-21T23:15:51.299Z,74.57
2023-12-21T23:18:20.541Z,74.73
2023-12-21T23:20:48.807Z,73.50
2023-12-21T23:23:17.360Z,76.83
2023-12-21T23:25:45.776Z,76.63
2023-12-21T23:28:13.995Z,75.80
2023-12-21T23:30:42.430Z,79.73
2023-12-21T23:33:11.748Z,81.93
2023-12-21T23:35:39.839Z,77.33
2023-12-21T23:38:08.113Z,82.20
2023-12-21T23:40:36.156Z,88.53
2023-12-21T23:43:04.137Z,87.37
2023-12-21T23:45:32.466Z,85.53
2023-12-21T23:48:00.550Z,86.10
2023-12-21T23:50:28.855Z,79.13
2023-12-21T23:52:57.089Z,81.17
2023-12-21T23:55:25.482Z,86.70
2023-12-21T23:57:53.551Z,80.57
